createdAt,value
2019-04-26T00:01:51.063Z,83.58
2019-04-26T00:04:48.182Z,83.69
2019-04-26T00:07:47.431Z,84.29
2019-04-26T00:11:09.627Z,83.79
2019-04-26T00:14:21.066Z,84.57
2019-04-26T00:17:37.619Z,85.26
2019-04-26T00:20:39.579Z,85.80
2019-04-26T00:23:42.946Z,85.83
2019-04-26T00:26:47.646Z,86.07
2019-04-26T00:29:43.782Z,86.03
2019-04-26T00:32:47.413Z,86.50
2019-04-26T00:35:55.633Z,86.39
2019-04-26T00:39:12.864Z,86.44
2019-04-26T00:42:18.552Z,86.39
2019-04-26T00:45:22.888Z,86.08
2019-04-26T00:48:42.943Z,85.92
2019-04-26T00:51:42.019Z,85.47
2019-04-26T00:54:37.984Z,86.12
2019-04-26T00:57:43.518Z,86.38
2019-04-26T01:00:54.114Z,86.00
2019-04-26T01:04:00.004Z,86.26
2019-04-26T01:07:01.952Z,85.95
2019-04-26T01:09:51.582Z,86.36
2019-04-26T01:12:59.794Z,86.34
2019-04-26T01:15:49.131Z,85.85
2019-04-26T01:18:44.631Z,86.52
2019-04-26T01:21:47.887Z,86.71
2019-04-26T01:24:57.519Z,86.90
2019-04-26T01:28:12.763Z,86.81
2019-04-26T01:31:22.701Z,87.33
2019-04-26T01:34:26.155Z,87.75
2019-04-26T01:37:31.628Z,87.73
2019-04-26T01:40:30.204Z,87.87
2019-04-26T01:43:40.852Z,87.70
2019-04-26T01:46:54.780Z,88.00
2019-04-26T01:49:57.014Z,88.26
2019-04-26T01:53:05.039Z,88.31
2019-04-26T01:56:09.340Z,88.08
2019-04-26T01:59:15.273Z,88.01
2019-04-26T02:02:41.295Z,88.02
2019-04-26T02:05:35.774Z,88.08
2019-04-26T02:08:47.373Z,87.86
2019-04-26T02:11:59.649Z,88.00
2019-04-26T02:14:59.156Z,88.00
2019-04-26T02:18:05.901Z,87.51
2019-04-26T02:21:31.964Z,88.38
2019-04-26T02:24:55.984Z,87.78
2019-04-26T02:27:56.427Z,88.08
2019-04-26T02:30:49.144Z,88.08
2019-04-26T02:37:04.811Z,88.31
2019-04-26T02:40:17.456Z,88.86
2019-04-26T02:43:28.599Z,88.58
2019-04-26T02:46:38.155Z,88.98
2019-04-26T02:49:58.052Z,88.88
2019-04-26T02:53:28.813Z,88.86
2019-04-26T02:57:08.370Z,88.82
2019-04-26T03:00:32.143Z,89.04
2019-04-26T03:03:40.130Z,90.19
2019-04-26T03:06:34.421Z,90.75
2019-04-26T03:09:39.198Z,92.39
2019-04-26T03:12:48.439Z,92.91
2019-04-26T03:16:16.781Z,93.73
2019-04-26T03:19:48.959Z,95.07
2019-04-26T03:23:09.120Z,95.39
2019-04-26T03:26:26.659Z,95.44
2019-04-26T03:30:18.263Z,96.52
2019-04-26T03:33:36.239Z,96.19
2019-04-26T03:36:54.778Z,97.05
2019-04-26T03:40:11.707Z,96.88
2019-04-26T03:43:47.271Z,97.14
2019-04-26T03:47:07.375Z,97.66
2019-04-26T03:50:40.904Z,98.25
2019-04-26T03:53:47.747Z,97.56
2019-04-26T03:57:00.186Z,98.35
2019-04-26T04:00:30.565Z,99.09
2019-04-26T04:03:40.288Z,99.76
2019-04-26T04:06:56.690Z,99.97
2019-04-26T04:09:52.334Z,100.00
2019-04-26T04:13:14.537Z,100.00
2019-04-26T04:15:53.579Z,100.00
2019-04-26T04:18:47.551Z,100.00
2019-04-26T04:22:00.386Z,100.00
2019-04-26T04:25:09.781Z,100.00
2019-04-26T04:28:24.549Z,100.00
2019-04-26T04:31:38.353Z,100.00
2019-04-26T04:34:35.906Z,100.00
2019-04-26T04:37:19.280Z,100.00
2019-04-26T04:40:09.272Z,100.00
2019-04-26T04:43:14.026Z,100.00
2019-04-26T04:46:12.064Z,100.00
2019-04-26T04:49:37.944Z,100.00
2019-04-26T04:52:24.249Z,100.00
2019-04-26T04:55:28.447Z,100.00
2019-04-26T04:58:52.341Z,100.00
2019-04-26T05:02:44.922Z,100.00
2019-04-26T05:06:23.729Z,100.00
2019-04-26T05:10:04.990Z,100.00
2019-04-26T05:13:41.527Z,100.00
2019-04-26T05:16:57.234Z,100.00
2019-04-26T05:20:37.654Z,100.00
2019-04-26T05:24:06.129Z,100.00
2019-04-26T05:27:34.633Z,98.86
2019-04-26T05:31:33.614Z,99.71
2019-04-26T05:35:09.706Z,99.80
2019-04-26T05:38:23.137Z,99.63
2019-04-26T05:41:39.439Z,99.36
2019-04-26T05:44:58.920Z,100.00
2019-04-26T05:48:24.550Z,100.00
2019-04-26T05:51:50.542Z,100.00
2019-04-26T05:55:14.095Z,100.00
2019-04-26T05:58:41.027Z,100.00
2019-04-26T06:02:16.692Z,100.00
2019-04-26T06:06:22.392Z,100.00
2019-04-26T06:10:08.534Z,100.00
2019-04-26T06:13:43.935Z,100.00
2019-04-26T06:17:27.045Z,100.00
2019-04-26T06:20:45.008Z,100.00
2019-04-26T06:24:16.668Z,100.00
2019-04-26T06:27:46.484Z,99.33
2019-04-26T06:31:05.868Z,100.00
2019-04-26T06:34:29.217Z,100.00
2019-04-26T06:37:55.709Z,99.09
2019-04-26T06:41:21.827Z,98.05
2019-04-26T06:44:34.010Z,96.59
2019-04-26T06:47:33.845Z,96.38
2019-04-26T06:50:51.471Z,95.40
2019-04-26T06:54:03.550Z,96.00
2019-04-26T06:57:31.807Z,96.02
2019-04-26T07:00:54.504Z,97.08
2019-04-26T07:04:19.134Z,97.21
2019-04-26T07:07:41.452Z,95.30
2019-04-26T07:11:24.391Z,94.82
2019-04-26T07:15:04.341Z,93.89
2019-04-26T07:18:32.745Z,95.29
2019-04-26T07:21:58.115Z,96.04
2019-04-26T07:25:24.824Z,94.73
2019-04-26T07:28:43.965Z,96.08
2019-04-26T07:32:07.451Z,96.12
2019-04-26T07:35:43.976Z,96.16
2019-04-26T07:39:19.497Z,95.75
2019-04-26T07:42:26.798Z,96.40
2019-04-26T07:45:43.914Z,96.15
2019-04-26T07:49:24.352Z,97.34
2019-04-26T07:52:56.096Z,96.12
2019-04-26T07:56:19.899Z,95.82
2019-04-26T07:59:37.472Z,95.21
2019-04-26T08:03:08.710Z,95.71
2019-04-26T08:06:25.081Z,96.57
2019-04-26T08:09:27.150Z,96.81
2019-04-26T08:12:48.921Z,95.26
2019-04-26T08:16:17.135Z,96.56
2019-04-26T08:19:28.212Z,96.41
2019-04-26T08:22:37.254Z,96.05
2019-04-26T08:25:56.249Z,95.50
2019-04-26T08:29:06.949Z,94.36
2019-04-26T08:32:17.042Z,95.89
2019-04-26T08:35:44.306Z,95.80
2019-04-26T08:38:40.635Z,94.95
2019-04-26T08:41:45.678Z,94.33
2019-04-26T08:45:13.909Z,96.30
2019-04-26T08:48:27.782Z,95.03
2019-04-26T08:51:38.339Z,92.79
2019-04-26T08:54:40.459Z,90.89
2019-04-26T08:57:47.126Z,89.21
2019-04-26T09:01:06.531Z,88.17
2019-04-26T09:04:17.140Z,90.48
2019-04-26T09:07:27.184Z,89.95
2019-04-26T09:10:43.327Z,90.97
2019-04-26T09:13:49.816Z,90.44
2019-04-26T09:17:00.623Z,90.59
2019-04-26T09:20:09.471Z,89.42
2019-04-26T09:26:17.058Z,90.62
2019-04-26T09:29:32.083Z,92.01
2019-04-26T09:32:53.722Z,91.49
2019-04-26T09:36:02.435Z,92.21
2019-04-26T09:39:03.886Z,90.78
2019-04-26T09:42:13.269Z,89.60
2019-04-26T09:45:25.768Z,88.79
2019-04-26T09:48:36.641Z,89.24
2019-04-26T09:51:40.433Z,88.25
2019-04-26T09:54:36.956Z,87.25
2019-04-26T09:57:42.477Z,83.26
2019-04-26T10:00:53.079Z,80.17
2019-04-26T10:04:01.584Z,77.13
2019-04-26T10:07:08.075Z,73.56
2019-04-26T10:10:22.696Z,74.70
2019-04-26T10:13:24.436Z,75.11
2019-04-26T10:16:42.335Z,79.05
2019-04-26T10:19:58.996Z,77.67
2019-04-26T10:23:00.312Z,79.17
2019-04-26T10:26:08.927Z,79.09
2019-04-26T10:29:15.061Z,78.96
2019-04-26T10:32:21.551Z,78.06
2019-04-26T10:35:21.548Z,80.27
2019-04-26T10:38:25.450Z,80.58
2019-04-26T10:41:31.554Z,81.32
2019-04-26T10:44:35.858Z,82.45
2019-04-26T10:47:28.942Z,85.02
2019-04-26T10:50:35.276Z,84.22
2019-04-26T10:53:50.610Z,83.22
2019-04-26T10:57:19.706Z,84.51
2019-04-26T11:00:14.136Z,83.43
2019-04-26T11:03:26.213Z,82.86
2019-04-26T11:06:31.559Z,80.87
2019-04-26T11:09:31.482Z,79.93
2019-04-26T11:12:25.932Z,81.70
2019-04-26T11:15:32.718Z,84.51
2019-04-26T11:18:32.420Z,82.91
2019-04-26T11:21:39.805Z,77.98
2019-04-26T11:24:56.573Z,75.48
2019-04-26T11:27:59.210Z,76.66
2019-04-26T11:30:34.559Z,76.35
2019-04-26T11:33:44.624Z,74.91
2019-04-26T11:36:45.161Z,73.67
2019-04-26T11:39:46.289Z,77.38
2019-04-26T11:42:51.129Z,79.19
2019-04-26T11:45:45.405Z,77.42
2019-04-26T11:48:58.511Z,79.33
2019-04-26T11:51:23.581Z,77.43
2019-04-26T11:54:12.481Z,74.49
2019-04-26T11:57:19.141Z,72.83
2019-04-26T12:00:28.639Z,70.57
2019-04-26T12:03:31.414Z,68.91
2019-04-26T12:06:43.000Z,69.77
2019-04-26T12:09:51.460Z,66.63
2019-04-26T12:12:51.726Z,66.28
2019-04-26T12:16:05.138Z,62.76
2019-04-26T12:19:05.566Z,67.64
2019-04-26T12:22:10.115Z,65.38
2019-04-26T12:25:18.447Z,65.04
2019-04-26T12:28:14.400Z,66.03
2019-04-26T12:31:17.626Z,64.87
2019-04-26T12:34:20.154Z,66.87
2019-04-26T12:37:21.198Z,68.52
2019-04-26T12:40:24.815Z,65.53
2019-04-26T12:43:31.440Z,68.19
2019-04-26T12:46:54.096Z,70.08
2019-04-26T12:50:03.409Z,73.19
2019-04-26T12:53:02.941Z,72.56
2019-04-26T12:56:07.585Z,72.53
2019-04-26T12:59:15.640Z,74.51
2019-04-26T13:02:11.324Z,74.89
2019-04-26T13:05:10.113Z,71.71
2019-04-26T13:08:13.156Z,70.78
2019-04-26T13:11:48.519Z,70.39
2019-04-26T13:15:07.894Z,69.00
2019-04-26T13:18:12.023Z,69.91
2019-04-26T13:21:10.885Z,70.89
2019-04-26T13:24:16.511Z,71.16
2019-04-26T13:27:15.590Z,70.55
2019-04-26T13:30:32.261Z,68.66
2019-04-26T13:33:17.709Z,67.42
2019-04-26T13:36:32.028Z,66.36
2019-04-26T13:39:34.379Z,64.60
2019-04-26T13:42:29.961Z,60.00
2019-04-26T13:45:28.300Z,59.66
2019-04-26T13:48:43.423Z,58.35
2019-04-26T13:51:57.895Z,54.33
2019-04-26T13:54:51.340Z,54.23
2019-04-26T13:57:49.239Z,55.36
2019-04-26T14:00:51.058Z,57.30
2019-04-26T14:03:47.142Z,55.69
2019-04-26T14:06:48.684Z,58.52
2019-04-26T14:09:56.821Z,61.27
2019-04-26T14:13:08.414Z,62.49
2019-04-26T14:16:11.901Z,59.84
2019-04-26T14:19:15.231Z,56.42
2019-04-26T14:22:21.328Z,52.07
2019-04-26T14:25:19.968Z,54.28
2019-04-26T14:28:20.258Z,53.20
2019-04-26T14:31:21.289Z,53.07
2019-04-26T14:34:18.774Z,55.26
2019-04-26T14:37:19.365Z,52.63
2019-04-26T14:40:28.282Z,52.40
2019-04-26T14:43:41.000Z,54.64
2019-04-26T14:46:48.733Z,53.76
2019-04-26T14:49:49.006Z,53.76
2019-04-26T14:52:27.734Z,55.15
2019-04-26T14:55:01.668Z,52.96
2019-04-26T14:57:39.284Z,51.36
2019-04-26T15:00:16.615Z,51.45
2019-04-26T15:03:06.852Z,51.45
2019-04-26T15:06:12.863Z,51.35
2019-04-26T15:09:02.960Z,49.20
2019-04-26T15:11:53.343Z,52.17
2019-04-26T15:14:28.292Z,54.32
2019-04-26T15:17:26.448Z,55.64
2019-04-26T15:20:07.155Z,55.86
2019-04-26T15:22:52.907Z,56.19
2019-04-26T15:25:27.788Z,53.98
2019-04-26T15:28:19.862Z,51.27
2019-04-26T15:30:59.779Z,51.98
2019-04-26T15:33:53.948Z,52.71
2019-04-26T15:36:32.889Z,52.71
2019-04-26T15:39:13.150Z,52.25
2019-04-26T15:42:17.696Z,50.56
2019-04-26T15:45:13.023Z,49.63
2019-04-26T15:48:37.970Z,48.39
2019-04-26T15:51:24.405Z,48.66
2019-04-26T15:53:57.736Z,46.95
2019-04-26T15:56:35.837Z,48.83
2019-04-26T15:59:18.462Z,52.22
2019-04-26T16:01:59.028Z,49.84
2019-04-26T16:04:51.282Z,49.26
2019-04-26T16:07:29.166Z,49.26
2019-04-26T16:10:06.287Z,48.98
2019-04-26T16:12:43.383Z,49.67
2019-04-26T16:15:23.420Z,52.02
2019-04-26T16:18:04.233Z,50.90
2019-04-26T16:20:50.764Z,49.89
2019-04-26T16:23:41.588Z,51.84
2019-04-26T16:26:15.809Z,50.30
2019-04-26T16:29:20.523Z,50.30
2019-04-26T16:32:22.035Z,50.73
2019-04-26T16:34:52.892Z,50.29
2019-04-26T16:37:44.454Z,50.27
2019-04-26T16:40:17.775Z,51.65
2019-04-26T16:42:56.575Z,50.52
2019-04-26T16:45:37.210Z,50.09
2019-04-26T16:48:25.569Z,50.42
2019-04-26T16:51:08.320Z,52.02
2019-04-26T16:54:02.840Z,51.29
2019-04-26T16:56:28.319Z,52.91
2019-04-26T16:59:22.402Z,52.54
2019-04-26T17:02:02.401Z,52.99
2019-04-26T17:04:49.319Z,53.09
2019-04-26T17:07:30.585Z,52.71
2019-04-26T17:10:06.478Z,54.53
2019-04-26T17:12:54.239Z,53.92
2019-04-26T17:15:32.609Z,54.37
2019-04-26T17:18:13.386Z,55.42
2019-04-26T17:20:58.807Z,54.85
2019-04-26T17:24:00.728Z,55.06
2019-04-26T17:26:38.247Z,57.03
2019-04-26T17:29:28.672Z,57.90
2019-04-26T17:32:20.978Z,57.71
2019-04-26T17:34:54.539Z,58.19
2019-04-26T17:37:41.082Z,59.31
2019-04-26T17:40:16.220Z,58.67
2019-04-26T17:42:48.965Z,58.61
2019-04-26T17:45:23.808Z,58.57
2019-04-26T17:48:14.126Z,60.52
2019-04-26T17:50:57.599Z,60.13
2019-04-26T17:53:56.126Z,59.33
2019-04-26T17:56:26.135Z,60.08
2019-04-26T17:59:09.295Z,61.11
2019-04-26T18:02:00.786Z,61.61
2019-04-26T18:04:58.190Z,62.56
2019-04-26T18:07:40.656Z,62.50
2019-04-26T18:10:10.382Z,62.58
2019-04-26T18:12:50.945Z,63.49
2019-04-26T18:15:27.752Z,62.82
2019-04-26T18:18:28.264Z,64.88
2019-04-26T18:21:27.996Z,64.70
2019-04-26T18:24:15.430Z,64.73
2019-04-26T18:26:59.045Z,66.91
2019-04-26T18:29:33.972Z,70.17
2019-04-26T18:32:04.755Z,73.46
2019-04-26T18:34:40.237Z,77.57
2019-04-26T18:37:07.460Z,81.15
2019-04-26T18:39:37.433Z,85.72
2019-04-26T18:42:21.181Z,88.63
2019-04-26T18:45:07.714Z,88.31
2019-04-26T18:48:01.271Z,87.04
2019-04-26T18:50:51.061Z,90.28
2019-04-26T18:53:50.393Z,90.81
2019-04-26T18:56:23.970Z,89.54
2019-04-26T18:59:12.915Z,91.32
2019-04-26T19:01:50.096Z,91.43
2019-04-26T19:04:36.967Z,90.51
2019-04-26T19:07:32.230Z,90.69
2019-04-26T19:10:21.489Z,91.04
2019-04-26T19:13:36.322Z,94.73
2019-04-26T19:16:58.800Z,91.53
2019-04-26T19:20:02.813Z,92.68
2019-04-26T19:22:35.523Z,94.53
2019-04-26T19:25:29.958Z,95.28
2019-04-26T19:28:28.455Z,96.93
2019-04-26T19:30:58.905Z,94.52
2019-04-26T19:33:35.950Z,96.12
2019-04-26T19:36:13.571Z,95.78
2019-04-26T19:38:49.925Z,96.62
2019-04-26T19:41:27.189Z,99.21
2019-04-26T19:44:04.687Z,98.54
2019-04-26T19:47:06.645Z,98.70
2019-04-26T19:50:17.046Z,98.90
2019-04-26T19:53:16.557Z,94.56
2019-04-26T19:56:03.050Z,97.64
2019-04-26T19:58:36.449Z,98.07
2019-04-26T20:01:12.276Z,97.44
2019-04-26T20:03:55.326Z,99.92
2019-04-26T20:06:32.224Z,99.68
2019-04-26T20:09:13.625Z,99.22
2019-04-26T20:11:58.094Z,99.71
2019-04-26T20:14:45.040Z,100.00
2019-04-26T20:17:37.439Z,100.00
2019-04-26T20:20:19.431Z,100.00
2019-04-26T20:23:08.065Z,100.00
2019-04-26T20:26:09.014Z,100.00
2019-04-26T20:29:40.746Z,100.00
2019-04-26T20:32:52.438Z,100.00
2019-04-26T20:36:01.322Z,100.00
2019-04-26T20:39:08.566Z,100.00
2019-04-26T20:42:12.582Z,100.00
2019-04-26T20:45:08.309Z,100.00
2019-04-26T20:47:55.619Z,100.00
2019-04-26T20:50:48.577Z,100.00
2019-04-26T20:53:54.981Z,100.00
2019-04-26T20:56:59.096Z,100.00
2019-04-26T21:00:07.769Z,100.00
2019-04-26T21:03:01.624Z,100.00
2019-04-26T21:05:59.296Z,100.00
2019-04-26T21:08:54.181Z,100.00
2019-04-26T21:11:57.338Z,100.00
2019-04-26T21:15:08.668Z,100.00
2019-04-26T21:18:04.047Z,100.00
2019-04-26T21:21:10.494Z,100.00
2019-04-26T21:24:01.732Z,100.00
2019-04-26T21:27:25.669Z,100.00
2019-04-26T21:30:23.086Z,100.00
2019-04-26T21:33:28.602Z,100.00
2019-04-26T21:36:53.178Z,98.61
2019-04-26T21:40:16.937Z,96.92
2019-04-26T21:43:14.779Z,97.25
2019-04-26T21:46:19.109Z,96.33
2019-04-26T21:49:00.989Z,93.91
2019-04-26T21:51:58.792Z,93.66
2019-04-26T21:54:57.233Z,94.40
2019-04-26T21:57:50.749Z,95.25
2019-04-26T22:01:05.240Z,96.77
2019-04-26T22:04:01.014Z,98.39
2019-04-26T22:06:53.459Z,98.98
2019-04-26T22:10:12.026Z,98.58
2019-04-26T22:13:16.244Z,97.50
2019-04-26T22:16:35.965Z,96.73
2019-04-26T22:19:58.960Z,95.71
2019-04-26T22:23:25.332Z,96.75
2019-04-26T22:26:38.055Z,95.23
2019-04-26T22:29:34.352Z,93.76
2019-04-26T22:32:29.824Z,94.22
2019-04-26T22:35:26.050Z,94.26
2019-04-26T22:38:23.797Z,94.46
2019-04-26T22:41:28.665Z,94.12
2019-04-26T22:44:31.180Z,93.73
2019-04-26T22:47:47.296Z,94.55
2019-04-26T22:50:45.879Z,93.42
2019-04-26T22:53:49.442Z,92.76
2019-04-26T22:57:01.173Z,92.53
2019-04-26T23:00:02.611Z,92.71
2019-04-26T23:02:58.115Z,92.73
2019-04-26T23:06:00.625Z,92.49
2019-04-26T23:08:59.923Z,92.40
2019-04-26T23:12:25.071Z,91.82
2019-04-26T23:15:40.352Z,91.44
2019-04-26T23:18:53.730Z,91.48
2019-04-26T23:21:59.714Z,90.72
2019-04-26T23:25:06.244Z,91.63
2019-04-26T23:28:05.044Z,91.93
2019-04-26T23:31:17.173Z,92.23
2019-04-26T23:34:25.170Z,92.40
2019-04-26T23:37:32.634Z,92.45
2019-04-26T23:40:29.715Z,92.70
2019-04-26T23:43:32.288Z,93.61
2019-04-26T23:46:44.333Z,93.33
2019-04-26T23:49:57.294Z,92.88
2019-04-26T23:52:58.433Z,92.04
2019-04-26T23:55:59.710Z,92.75
2019-04-26T23:59:05.572Z,93.95
